sensor_id;sensor_type;location;lat;lon;timestamp;P1;durP1;ratioP1;P2;durP2;ratioP2
18100;SDS011;9177;49.156;8.142;2023-01-26T00:02:14;4.87;;;4.40;;
18100;SDS011;9177;49.156;8.142;2023-01-26T00:04:42;5.00;;;4.60;;
18100;SDS011;9177;49.156;8.142;2023-01-26T00:07:09;4.83;;;4.33;;
18100;SDS011;9177;49.156;8.142;2023-01-26T00:09:36;4.97;;;4.40;;
18100;SDS011;9177;49.156;8.142;2023-01-26T00:12:03;5.63;;;5.00;;
18100;SDS011;9177;49.156;8.142;2023-01-26T00:14:30;5.10;;;4.60;;
18100;SDS011;9177;49.156;8.142;2023-01-26T00:17:14;4.93;;;4.43;;
18100;SDS011;9177;49.156;8.142;2023-01-26T00:19:51;5.57;;;5.07;;
18100;SDS011;9177;49.156;8.142;2023-01-26T00:22:19;5.67;;;5.13;;
18100;SDS011;9177;49.156;8.142;2023-01-26T00:24:46;5.60;;;5.10;;
18100;SDS011;9177;49.156;8.142;2023-01-26T00:27:13;5.20;;;4.70;;
18100;SDS011;9177;49.156;8.142;2023-01-26T00:29:39;5.03;;;4.50;;
18100;SDS011;9177;49.156;8.142;2023-01-26T00:32:07;5.47;;;4.97;;
18100;SDS011;9177;49.156;8.142;2023-01-26T00:34:33;5.03;;;4.53;;
18100;SDS011;9177;49.156;8.142;2023-01-26T00:37:01;5.23;;;4.73;;
18100;SDS011;9177;49.156;8.142;2023-01-26T00:39:28;5.33;;;4.83;;
18100;SDS011;9177;49.156;8.142;2023-01-26T00:41:55;5.17;;;4.67;;
18100;SDS011;9177;49.156;8.142;2023-01-26T00:44:38;5.10;;;4.60;;
18100;SDS011;9177;49.156;8.142;2023-01-26T00:47:07;5.40;;;4.90;;
18100;SDS011;9177;49.156;8.142;2023-01-26T00:49:35;5.00;;;4.50;;
18100;SDS011;9177;49.156;8.142;2023-01-26T00:52:04;5.57;;;5.07;;
18100;SDS011;9177;49.156;8.142;2023-01-26T00:54:31;5.00;;;4.20;;
18100;SDS011;9177;49.156;8.142;2023-01-26T00:56:58;5.43;;;4.93;;
18100;SDS011;9177;49.156;8.142;2023-01-26T00:59:25;5.40;;;4.90;;
18100;SDS011;9177;49.156;8.142;2023-01-26T01:01:53;5.50;;;4.70;;
18100;SDS011;9177;49.156;8.142;2023-01-26T01:04:20;5.60;;;5.10;;
18100;SDS011;9177;49.156;8.142;2023-01-26T01:06:47;5.17;;;4.67;;
18100;SDS011;9177;49.156;8.142;2023-01-26T01:09:15;5.50;;;5.00;;
18100;SDS011;9177;49.156;8.142;2023-01-26T01:11:42;5.43;;;4.93;;
18100;SDS011;9177;49.156;8.142;2023-01-26T01:14:09;5.00;;;4.60;;
18100;SDS011;9177;49.156;8.142;2023-01-26T01:16:37;5.27;;;4.77;;
18100;SDS011;9177;49.156;8.142;2023-01-26T01:19:04;5.40;;;4.70;;
18100;SDS011;9177;49.156;8.142;2023-01-26T01:21:31;4.80;;;4.10;;
18100;SDS011;9177;49.156;8.142;2023-01-26T01:23:58;5.13;;;4.63;;
18100;SDS011;9177;49.156;8.142;2023-01-26T01:26:27;5.60;;;5.03;;
18100;SDS011;9177;49.156;8.142;2023-01-26T01:28:54;5.17;;;4.67;;
18100;SDS011;9177;49.156;8.142;2023-01-26T01:31:21;5.33;;;4.83;;
18100;SDS011;9177;49.156;8.142;2023-01-26T01:33:50;5.40;;;4.90;;
18100;SDS011;9177;49.156;8.142;2023-01-26T01:36:17;5.40;;;4.90;;
18100;SDS011;9177;49.156;8.142;2023-01-26T01:38:44;5.23;;;4.80;;
18100;SDS011;9177;49.156;8.142;2023-01-26T01:41:12;5.00;;;4.53;;
18100;SDS011;9177;49.156;8.142;2023-01-26T01:43:41;5.73;;;5.23;;
18100;SDS011;9177;49.156;8.142;2023-01-26T01:46:10;5.63;;;5.13;;
18100;SDS011;9177;49.156;8.142;2023-01-26T01:48:46;5.10;;;4.60;;
18100;SDS011;9177;49.156;8.142;2023-01-26T01:51:18;5.50;;;5.00;;
18100;SDS011;9177;49.156;8.142;2023-01-26T01:53:49;5.40;;;4.90;;
18100;SDS011;9177;49.156;8.142;2023-01-26T01:56:17;5.37;;;4.87;;
18100;SDS011;9177;49.156;8.142;2023-01-26T01:58:50;5.57;;;5.07;;
18100;SDS011;9177;49.156;8.142;2023-01-26T02:01:19;5.00;;;4.60;;
18100;SDS011;9177;49.156;8.142;2023-01-26T02:03:46;6.10;;;5.13;;
18100;SDS011;9177;49.156;8.142;2023-01-26T02:06:17;5.33;;;4.83;;
18100;SDS011;9177;49.156;8.142;2023-01-26T02:08:47;5.73;;;5.13;;
18100;SDS011;9177;49.156;8.142;2023-01-26T02:11:18;5.33;;;4.83;;
18100;SDS011;9177;49.156;8.142;2023-01-26T02:13:49;5.23;;;4.73;;
18100;SDS011;9177;49.156;8.142;2023-01-26T02:16:17;5.37;;;4.87;;
18100;SDS011;9177;49.156;8.142;2023-01-26T02:18:44;5.57;;;5.07;;
18100;SDS011;9177;49.156;8.142;2023-01-26T02:21:12;5.50;;;5.00;;
18100;SDS011;9177;49.156;8.142;2023-01-26T02:23:46;5.10;;;4.60;;
18100;SDS011;9177;49.156;8.142;2023-01-26T02:26:21;5.23;;;4.73;;
18100;SDS011;9177;49.156;8.142;2023-01-26T02:28:49;5.30;;;4.80;;
18100;SDS011;9177;49.156;8.142;2023-01-26T02:31:17;5.43;;;4.93;;
18100;SDS011;9177;49.156;8.142;2023-01-26T02:33:44;5.40;;;4.90;;
18100;SDS011;9177;49.156;8.142;2023-01-26T02:36:16;5.53;;;5.03;;
18100;SDS011;9177;49.156;8.142;2023-01-26T02:38:48;5.57;;;5.07;;
18100;SDS011;9177;49.156;8.142;2023-01-26T02:41:22;5.67;;;5.17;;
18100;SDS011;9177;49.156;8.142;2023-01-26T02:44:08;5.60;;;5.03;;
18100;SDS011;9177;49.156;8.142;2023-01-26T02:46:36;5.43;;;4.93;;
18100;SDS011;9177;49.156;8.142;2023-01-26T02:49:03;5.73;;;5.23;;
18100;SDS011;9177;49.156;8.142;2023-01-26T02:51:47;4.80;;;4.40;;
18100;SDS011;9177;49.156;8.142;2023-01-26T02:54:14;5.20;;;4.70;;
18100;SDS011;9177;49.156;8.142;2023-01-26T02:56:56;5.87;;;5.37;;
18100;SDS011;9177;49.156;8.142;2023-01-26T02:59:23;5.60;;;4.70;;
18100;SDS011;9177;49.156;8.142;2023-01-26T03:01:50;5.13;;;4.73;;
18100;SDS011;9177;49.156;8.142;2023-01-26T03:04:18;5.17;;;4.67;;
18100;SDS011;9177;49.156;8.142;2023-01-26T03:06:45;6.10;;;5.50;;
18100;SDS011;9177;49.156;8.142;2023-01-26T03:09:12;5.50;;;5.00;;
18100;SDS011;9177;49.156;8.142;2023-01-26T03:11:39;5.97;;;5.37;;
18100;SDS011;9177;49.156;8.142;2023-01-26T03:14:08;5.57;;;5.07;;
18100;SDS011;9177;49.156;8.142;2023-01-26T03:16:35;5.40;;;4.90;;
18100;SDS011;9177;49.156;8.142;2023-01-26T03:19:02;5.40;;;4.90;;
18100;SDS011;9177;49.156;8.142;2023-01-26T03:21:46;5.33;;;4.83;;
18100;SDS011;9177;49.156;8.142;2023-01-26T03:24:30;5.37;;;4.87;;
18100;SDS011;9177;49.156;8.142;2023-01-26T03:27:14;5.87;;;5.37;;
18100;SDS011;9177;49.156;8.142;2023-01-26T03:29:55;5.13;;;4.63;;
18100;SDS011;9177;49.156;8.142;2023-01-26T03:32:23;5.67;;;5.10;;
18100;SDS011;9177;49.156;8.142;2023-01-26T03:34:50;5.83;;;5.33;;
18100;SDS011;9177;49.156;8.142;2023-01-26T03:37:17;5.50;;;5.00;;
18100;SDS011;9177;49.156;8.142;2023-01-26T03:39:46;5.23;;;4.73;;
18100;SDS011;9177;49.156;8.142;2023-01-26T03:42:31;5.50;;;5.00;;
18100;SDS011;9177;49.156;8.142;2023-01-26T03:45:17;5.50;;;4.90;;
18100;SDS011;9177;49.156;8.142;2023-01-26T03:48:03;5.50;;;5.00;;
18100;SDS011;9177;49.156;8.142;2023-01-26T03:50:48;5.43;;;4.93;;
18100;SDS011;9177;49.156;8.142;2023-01-26T03:53:32;6.13;;;5.53;;
18100;SDS011;9177;49.156;8.142;2023-01-26T03:56:17;5.50;;;5.00;;
18100;SDS011;9177;49.156;8.142;2023-01-26T03:58:46;5.73;;;5.23;;
18100;SDS011;9177;49.156;8.142;2023-01-26T04:01:15;5.27;;;4.77;;
18100;SDS011;9177;49.156;8.142;2023-01-26T04:03:48;5.80;;;5.30;;
18100;SDS011;9177;49.156;8.142;2023-01-26T04:06:33;5.70;;;5.10;;
18100;SDS011;9177;49.156;8.142;2023-01-26T04:09:19;5.17;;;4.77;;
18100;SDS011;9177;49.156;8.142;2023-01-26T04:11:46;5.57;;;5.07;;
18100;SDS011;9177;49.156;8.142;2023-01-26T04:14:13;5.43;;;4.93;;
18100;SDS011;9177;49.156;8.142;2023-01-26T04:17:00;4.87;;;4.43;;
18100;SDS011;9177;49.156;8.142;2023-01-26T04:19:45;5.43;;;4.93;;
18100;SDS011;9177;49.156;8.142;2023-01-26T04:22:30;5.37;;;4.87;;
18100;SDS011;9177;49.156;8.142;2023-01-26T04:25:05;5.70;;;5.10;;
18100;SDS011;9177;49.156;8.142;2023-01-26T04:27:33;5.80;;;5.20;;
18100;SDS011;9177;49.156;8.142;2023-01-26T04:30:00;6.10;;;5.50;;
18100;SDS011;9177;49.156;8.142;2023-01-26T04:32:29;5.27;;;4.77;;
18100;SDS011;9177;49.156;8.142;2023-01-26T04:34:55;5.67;;;5.17;;
18100;SDS011;9177;49.156;8.142;2023-01-26T04:37:23;5.47;;;4.97;;
18100;SDS011;9177;49.156;8.142;2023-01-26T04:39:50;4.93;;;4.53;;
18100;SDS011;9177;49.156;8.142;2023-01-26T04:42:16;5.13;;;4.63;;
18100;SDS011;9177;49.156;8.142;2023-01-26T04:44:43;5.30;;;4.80;;
18100;SDS011;9177;49.156;8.142;2023-01-26T04:47:10;5.50;;;4.90;;
18100;SDS011;9177;49.156;8.142;2023-01-26T04:49:38;5.77;;;5.00;;
18100;SDS011;9177;49.156;8.142;2023-01-26T04:52:05;5.80;;;5.20;;
18100;SDS011;9177;49.156;8.142;2023-01-26T04:54:32;5.10;;;4.60;;
18100;SDS011;9177;49.156;8.142;2023-01-26T04:56:58;5.20;;;4.70;;
18100;SDS011;9177;49.156;8.142;2023-01-26T04:59:25;5.60;;;4.90;;
18100;SDS011;9177;49.156;8.142;2023-01-26T05:01:52;5.70;;;5.10;;
18100;SDS011;9177;49.156;8.142;2023-01-26T05:04:19;5.03;;;4.63;;
18100;SDS011;9177;49.156;8.142;2023-01-26T05:06:47;5.73;;;4.87;;
18100;SDS011;9177;49.156;8.142;2023-01-26T05:09:14;5.70;;;5.20;;
18100;SDS011;9177;49.156;8.142;2023-01-26T05:11:41;4.70;;;4.30;;
18100;SDS011;9177;49.156;8.142;2023-01-26T05:14:08;5.57;;;5.07;;
18100;SDS011;9177;49.156;8.142;2023-01-26T05:16:34;5.50;;;4.93;;
18100;SDS011;9177;49.156;8.142;2023-01-26T05:19:01;5.00;;;4.60;;
18100;SDS011;9177;49.156;8.142;2023-01-26T05:21:28;5.10;;;4.60;;
18100;SDS011;9177;49.156;8.142;2023-01-26T05:23:56;5.50;;;5.00;;
18100;SDS011;9177;49.156;8.142;2023-01-26T05:26:23;5.03;;;4.60;;
18100;SDS011;9177;49.156;8.142;2023-01-26T05:28:50;5.10;;;4.70;;
18100;SDS011;9177;49.156;8.142;2023-01-26T05:31:17;5.43;;;4.93;;
18100;SDS011;9177;49.156;8.142;2023-01-26T05:33:44;4.87;;;4.40;;
18100;SDS011;9177;49.156;8.142;2023-01-26T05:36:10;5.17;;;4.67;;
18100;SDS011;9177;49.156;8.142;2023-01-26T05:38:37;4.97;;;4.53;;
18100;SDS011;9177;49.156;8.142;2023-01-26T05:41:06;5.27;;;4.77;;
18100;SDS011;9177;49.156;8.142;2023-01-26T05:43:33;4.73;;;4.33;;
18100;SDS011;9177;49.156;8.142;2023-01-26T05:46:00;5.00;;;4.50;;
18100;SDS011;9177;49.156;8.142;2023-01-26T05:48:27;5.13;;;4.63;;
18100;SDS011;9177;49.156;8.142;2023-01-26T05:50:54;4.83;;;4.33;;
18100;SDS011;9177;49.156;8.142;2023-01-26T05:53:22;4.23;;;3.83;;
18100;SDS011;9177;49.156;8.142;2023-01-26T05:55:49;5.23;;;4.53;;
18100;SDS011;9177;49.156;8.142;2023-01-26T05:58:17;5.27;;;4.77;;
18100;SDS011;9177;49.156;8.142;2023-01-26T06:00:44;4.93;;;4.43;;
18100;SDS011;9177;49.156;8.142;2023-01-26T06:03:10;4.70;;;4.00;;
18100;SDS011;9177;49.156;8.142;2023-01-26T06:05:37;4.63;;;4.23;;
18100;SDS011;9177;49.156;8.142;2023-01-26T06:08:04;4.30;;;3.87;;
18100;SDS011;9177;49.156;8.142;2023-01-26T06:10:31;4.23;;;3.83;;
18100;SDS011;9177;49.156;8.142;2023-01-26T06:12:58;4.27;;;3.87;;
18100;SDS011;9177;49.156;8.142;2023-01-26T06:15:27;4.73;;;4.27;;
18100;SDS011;9177;49.156;8.142;2023-01-26T06:17:54;4.17;;;3.77;;
18100;SDS011;9177;49.156;8.142;2023-01-26T06:20:20;4.20;;;3.80;;
18100;SDS011;9177;49.156;8.142;2023-01-26T06:22:47;4.47;;;4.07;;
18100;SDS011;9177;49.156;8.142;2023-01-26T06:25:14;4.03;;;3.73;;
18100;SDS011;9177;49.156;8.142;2023-01-26T06:27:41;4.10;;;3.67;;
18100;SDS011;9177;49.156;8.142;2023-01-26T06:30:08;4.47;;;4.07;;
18100;SDS011;9177;49.156;8.142;2023-01-26T06:32:37;4.10;;;3.70;;
18100;SDS011;9177;49.156;8.142;2023-01-26T06:35:05;3.67;;;3.37;;
18100;SDS011;9177;49.156;8.142;2023-01-26T06:37:33;3.80;;;3.50;;
18100;SDS011;9177;49.156;8.142;2023-01-26T06:40:00;3.97;;;3.57;;
18100;SDS011;9177;49.156;8.142;2023-01-26T06:42:27;4.07;;;3.67;;
18100;SDS011;9177;49.156;8.142;2023-01-26T06:44:54;3.90;;;3.50;;
18100;SDS011;9177;49.156;8.142;2023-01-26T06:47:23;3.93;;;3.57;;
18100;SDS011;9177;49.156;8.142;2023-01-26T06:49:51;3.93;;;3.47;;
18100;SDS011;9177;49.156;8.142;2023-01-26T06:52:21;3.90;;;3.50;;
18100;SDS011;9177;49.156;8.142;2023-01-26T06:54:52;3.70;;;3.40;;
18100;SDS011;9177;49.156;8.142;2023-01-26T06:57:19;4.20;;;3.80;;
18100;SDS011;9177;49.156;8.142;2023-01-26T06:59:46;4.10;;;3.60;;
18100;SDS011;9177;49.156;8.142;2023-01-26T07:02:15;4.07;;;3.67;;
18100;SDS011;9177;49.156;8.142;2023-01-26T07:04:44;3.60;;;3.17;;
18100;SDS011;9177;49.156;8.142;2023-01-26T07:07:12;4.03;;;3.63;;
18100;SDS011;9177;49.156;8.142;2023-01-26T07:09:39;4.50;;;4.07;;
18100;SDS011;9177;49.156;8.142;2023-01-26T07:12:07;4.00;;;3.60;;
18100;SDS011;9177;49.156;8.142;2023-01-26T07:14:34;4.10;;;3.43;;
18100;SDS011;9177;49.156;8.142;2023-01-26T07:17:01;3.50;;;3.20;;
18100;SDS011;9177;49.156;8.142;2023-01-26T07:19:28;3.57;;;3.27;;
18100;SDS011;9177;49.156;8.142;2023-01-26T07:22:00;3.73;;;3.40;;
18100;SDS011;9177;49.156;8.142;2023-01-26T07:24:28;3.80;;;3.50;;
18100;SDS011;9177;49.156;8.142;2023-01-26T07:26:55;3.70;;;3.40;;
18100;SDS011;9177;49.156;8.142;2023-01-26T07:29:23;4.03;;;3.63;;
18100;SDS011;9177;49.156;8.142;2023-01-26T07:31:50;6.27;;;3.83;;
18100;SDS011;9177;49.156;8.142;2023-01-26T07:34:17;3.90;;;3.43;;
18100;SDS011;9177;49.156;8.142;2023-01-26T07:36:44;4.17;;;3.77;;
18100;SDS011;9177;49.156;8.142;2023-01-26T07:39:11;6.37;;;3.60;;
18100;SDS011;9177;49.156;8.142;2023-01-26T07:41:39;5.27;;;3.70;;
18100;SDS011;9177;49.156;8.142;2023-01-26T07:44:08;4.37;;;3.10;;
18100;SDS011;9177;49.156;8.142;2023-01-26T07:46:35;5.20;;;3.77;;
18100;SDS011;9177;49.156;8.142;2023-01-26T07:49:02;3.93;;;3.53;;
18100;SDS011;9177;49.156;8.142;2023-01-26T07:51:29;6.10;;;3.80;;
18100;SDS011;9177;49.156;8.142;2023-01-26T07:53:55;3.50;;;3.20;;
18100;SDS011;9177;49.156;8.142;2023-01-26T07:56:23;6.17;;;3.77;;
18100;SDS011;9177;49.156;8.142;2023-01-26T07:58:52;4.00;;;3.60;;
18100;SDS011;9177;49.156;8.142;2023-01-26T08:01:19;4.10;;;3.13;;
18100;SDS011;9177;49.156;8.142;2023-01-26T08:03:48;7.83;;;3.60;;
18100;SDS011;9177;49.156;8.142;2023-01-26T08:06:17;4.00;;;3.60;;
18100;SDS011;9177;49.156;8.142;2023-01-26T08:08:45;3.77;;;3.40;;
18100;SDS011;9177;49.156;8.142;2023-01-26T08:11:15;4.07;;;3.67;;
18100;SDS011;9177;49.156;8.142;2023-01-26T08:13:43;5.37;;;3.57;;
18100;SDS011;9177;49.156;8.142;2023-01-26T08:16:11;3.67;;;3.33;;
18100;SDS011;9177;49.156;8.142;2023-01-26T08:18:40;5.53;;;4.00;;
18100;SDS011;9177;49.156;8.142;2023-01-26T08:21:08;4.00;;;3.60;;
18100;SDS011;9177;49.156;8.142;2023-01-26T08:23:35;5.97;;;3.50;;
18100;SDS011;9177;49.156;8.142;2023-01-26T08:26:02;5.17;;;3.60;;
18100;SDS011;9177;49.156;8.142;2023-01-26T08:28:30;4.67;;;3.83;;
18100;SDS011;9177;49.156;8.142;2023-01-26T08:31:01;6.50;;;3.10;;
18100;SDS011;9177;49.156;8.142;2023-01-26T08:33:31;3.97;;;3.00;;
18100;SDS011;9177;49.156;8.142;2023-01-26T08:35:59;4.67;;;3.10;;
18100;SDS011;9177;49.156;8.142;2023-01-26T08:38:28;6.43;;;3.40;;
18100;SDS011;9177;49.156;8.142;2023-01-26T08:40:55;4.17;;;3.30;;
18100;SDS011;9177;49.156;8.142;2023-01-26T08:43:22;5.97;;;3.03;;
18100;SDS011;9177;49.156;8.142;2023-01-26T08:45:49;5.80;;;3.07;;
18100;SDS011;9177;49.156;8.142;2023-01-26T08:48:19;5.30;;;3.20;;
18100;SDS011;9177;49.156;8.142;2023-01-26T08:50:51;8.40;;;3.47;;
18100;SDS011;9177;49.156;8.142;2023-01-26T08:53:19;5.20;;;2.90;;
18100;SDS011;9177;49.156;8.142;2023-01-26T08:55:46;6.20;;;3.37;;
18100;SDS011;9177;49.156;8.142;2023-01-26T08:58:13;5.40;;;3.23;;
18100;SDS011;9177;49.156;8.142;2023-01-26T09:00:39;5.20;;;3.30;;
18100;SDS011;9177;49.156;8.142;2023-01-26T09:03:06;17.83;;;3.53;;
18100;SDS011;9177;49.156;8.142;2023-01-26T09:05:34;6.43;;;3.07;;
18100;SDS011;9177;49.156;8.142;2023-01-26T09:08:04;11.80;;;3.80;;
18100;SDS011;9177;49.156;8.142;2023-01-26T09:10:32;8.47;;;2.93;;
18100;SDS011;9177;49.156;8.142;2023-01-26T09:12:59;5.37;;;3.10;;
18100;SDS011;9177;49.156;8.142;2023-01-26T09:15:26;10.63;;;3.33;;
18100;SDS011;9177;49.156;8.142;2023-01-26T09:17:53;11.30;;;3.10;;
18100;SDS011;9177;49.156;8.142;2023-01-26T09:20:20;7.07;;;3.00;;
18100;SDS011;9177;49.156;8.142;2023-01-26T09:22:47;10.13;;;3.20;;
18100;SDS011;9177;49.156;8.142;2023-01-26T09:25:15;9.40;;;3.27;;
18100;SDS011;9177;49.156;8.142;2023-01-26T09:27:42;11.57;;;3.27;;
18100;SDS011;9177;49.156;8.142;2023-01-26T09:30:09;16.27;;;3.83;;
18100;SDS011;9177;49.156;8.142;2023-01-26T09:32:37;39.60;;;5.40;;
18100;SDS011;9177;49.156;8.142;2023-01-26T09:35:04;28.80;;;4.50;;
18100;SDS011;9177;49.156;8.142;2023-01-26T09:37:35;41.77;;;5.00;;
18100;SDS011;9177;49.156;8.142;2023-01-26T09:40:02;46.80;;;6.03;;
18100;SDS011;9177;49.156;8.142;2023-01-26T09:42:34;69.03;;;8.23;;
18100;SDS011;9177;49.156;8.142;2023-01-26T09:45:14;56.83;;;7.00;;
18100;SDS011;9177;49.156;8.142;2023-01-26T09:47:58;49.03;;;6.60;;
18100;SDS011;9177;49.156;8.142;2023-01-26T09:50:39;30.17;;;3.90;;
18100;SDS011;9177;49.156;8.142;2023-01-26T09:53:12;24.30;;;4.33;;
18100;SDS011;9177;49.156;8.142;2023-01-26T09:55:42;43.20;;;6.37;;
18100;SDS011;9177;49.156;8.142;2023-01-26T09:58:13;36.53;;;5.47;;
18100;SDS011;9177;49.156;8.142;2023-01-26T10:00:45;32.57;;;5.37;;
18100;SDS011;9177;49.156;8.142;2023-01-26T10:03:17;30.13;;;5.27;;
18100;SDS011;9177;49.156;8.142;2023-01-26T10:05:53;29.23;;;4.60;;
18100;SDS011;9177;49.156;8.142;2023-01-26T10:08:26;24.63;;;4.13;;
18100;SDS011;9177;49.156;8.142;2023-01-26T10:10:54;29.33;;;4.90;;
18100;SDS011;9177;49.156;8.142;2023-01-26T10:13:25;27.63;;;4.67;;
18100;SDS011;9177;49.156;8.142;2023-01-26T10:15:55;23.07;;;4.60;;
18100;SDS011;9177;49.156;8.142;2023-01-26T10:18:26;25.73;;;4.53;;
18100;SDS011;9177;49.156;8.142;2023-01-26T10:20:57;21.47;;;3.83;;
18100;SDS011;9177;49.156;8.142;2023-01-26T10:23:28;24.17;;;4.10;;
18100;SDS011;9177;49.156;8.142;2023-01-26T10:25:57;16.40;;;4.23;;
18100;SDS011;9177;49.156;8.142;2023-01-26T10:28:34;20.87;;;3.83;;
18100;SDS011;9177;49.156;8.142;2023-01-26T10:31:01;18.97;;;4.13;;
18100;SDS011;9177;49.156;8.142;2023-01-26T10:33:30;19.33;;;3.90;;
18100;SDS011;9177;49.156;8.142;2023-01-26T10:35:59;16.40;;;3.73;;
18100;SDS011;9177;49.156;8.142;2023-01-26T10:38:39;14.23;;;3.90;;
18100;SDS011;9177;49.156;8.142;2023-01-26T10:41:24;19.13;;;3.80;;
18100;SDS011;9177;49.156;8.142;2023-01-26T10:43:55;13.80;;;3.37;;
18100;SDS011;9177;49.156;8.142;2023-01-26T10:46:24;13.47;;;3.37;;
18100;SDS011;9177;49.156;8.142;2023-01-26T10:48:53;14.87;;;3.23;;
18100;SDS011;9177;49.156;8.142;2023-01-26T10:51:25;12.37;;;3.40;;
18100;SDS011;9177;49.156;8.142;2023-01-26T10:56:55;15.43;;;4.03;;
18100;SDS011;9177;49.156;8.142;2023-01-26T10:59:29;12.37;;;2.90;;
18100;SDS011;9177;49.156;8.142;2023-01-26T11:01:59;12.00;;;3.20;;
18100;SDS011;9177;49.156;8.142;2023-01-26T11:04:28;11.23;;;2.73;;
18100;SDS011;9177;49.156;8.142;2023-01-26T11:06:55;10.27;;;2.70;;
18100;SDS011;9177;49.156;8.142;2023-01-26T11:09:39;8.37;;;2.50;;
18100;SDS011;9177;49.156;8.142;2023-01-26T11:12:08;11.67;;;3.23;;
18100;SDS011;9177;49.156;8.142;2023-01-26T11:14:58;9.90;;;3.00;;
18100;SDS011;9177;49.156;8.142;2023-01-26T11:17:27;9.13;;;2.87;;
18100;SDS011;9177;49.156;8.142;2023-01-26T11:20:28;7.43;;;2.30;;
18100;SDS011;9177;49.156;8.142;2023-01-26T11:23:10;12.13;;;2.97;;
18100;SDS011;9177;49.156;8.142;2023-01-26T11:25:52;10.97;;;2.30;;
18100;SDS011;9177;49.156;8.142;2023-01-26T11:28:49;10.73;;;2.50;;
18100;SDS011;9177;49.156;8.142;2023-01-26T11:31:28;8.77;;;2.63;;
18100;SDS011;9177;49.156;8.142;2023-01-26T11:34:04;12.37;;;2.30;;
18100;SDS011;9177;49.156;8.142;2023-01-26T11:36:44;9.17;;;2.43;;
18100;SDS011;9177;49.156;8.142;2023-01-26T11:39:18;10.10;;;2.60;;
18100;SDS011;9177;49.156;8.142;2023-01-26T11:41:57;10.00;;;2.73;;
18100;SDS011;9177;49.156;8.142;2023-01-26T11:47:33;19.07;;;3.37;;
18100;SDS011;9177;49.156;8.142;2023-01-26T11:50:18;10.23;;;2.57;;
18100;SDS011;9177;49.156;8.142;2023-01-26T11:52:57;20.40;;;3.37;;
18100;SDS011;9177;49.156;8.142;2023-01-26T11:55:48;19.33;;;2.73;;
18100;SDS011;9177;49.156;8.142;2023-01-26T11:58:28;30.10;;;3.40;;
18100;SDS011;9177;49.156;8.142;2023-01-26T12:00:59;33.00;;;4.07;;
18100;SDS011;9177;49.156;8.142;2023-01-26T12:03:32;22.83;;;4.07;;
18100;SDS011;9177;49.156;8.142;2023-01-26T12:06:04;23.87;;;4.07;;
18100;SDS011;9177;49.156;8.142;2023-01-26T12:08:34;23.33;;;4.60;;
18100;SDS011;9177;49.156;8.142;2023-01-26T12:11:05;32.87;;;5.30;;
18100;SDS011;9177;49.156;8.142;2023-01-26T12:13:56;38.70;;;5.57;;
18100;SDS011;9177;49.156;8.142;2023-01-26T12:16:34;30.87;;;5.23;;
18100;SDS011;9177;49.156;8.142;2023-01-26T12:19:14;35.10;;;5.00;;
18100;SDS011;9177;49.156;8.142;2023-01-26T12:21:51;59.10;;;5.73;;
18100;SDS011;9177;49.156;8.142;2023-01-26T12:24:23;32.43;;;5.00;;
18100;SDS011;9177;49.156;8.142;2023-01-26T12:27:03;39.27;;;5.00;;
18100;SDS011;9177;49.156;8.142;2023-01-26T12:29:39;40.37;;;5.57;;
18100;SDS011;9177;49.156;8.142;2023-01-26T12:32:13;31.70;;;5.67;;
18100;SDS011;9177;49.156;8.142;2023-01-26T12:34:42;30.80;;;5.20;;
18100;SDS011;9177;49.156;8.142;2023-01-26T12:37:17;43.47;;;6.03;;
18100;SDS011;9177;49.156;8.142;2023-01-26T12:40:08;33.57;;;5.57;;
18100;SDS011;9177;49.156;8.142;2023-01-26T12:42:45;33.90;;;4.80;;
18100;SDS011;9177;49.156;8.142;2023-01-26T12:45:19;27.53;;;4.63;;
18100;SDS011;9177;49.156;8.142;2023-01-26T12:47:51;21.73;;;4.60;;
18100;SDS011;9177;49.156;8.142;2023-01-26T12:50:24;28.13;;;4.50;;
18100;SDS011;9177;49.156;8.142;2023-01-26T12:52:54;21.37;;;4.53;;
18100;SDS011;9177;49.156;8.142;2023-01-26T12:55:27;29.67;;;4.87;;
18100;SDS011;9177;49.156;8.142;2023-01-26T12:57:58;28.47;;;4.20;;
18100;SDS011;9177;49.156;8.142;2023-01-26T13:00:27;24.90;;;4.60;;
18100;SDS011;9177;49.156;8.142;2023-01-26T13:02:57;19.23;;;4.30;;
18100;SDS011;9177;49.156;8.142;2023-01-26T13:05:29;22.07;;;3.90;;
18100;SDS011;9177;49.156;8.142;2023-01-26T13:07:58;24.00;;;4.20;;
18100;SDS011;9177;49.156;8.142;2023-01-26T13:11:10;18.27;;;4.33;;
18100;SDS011;9177;49.156;8.142;2023-01-26T13:14:29;22.97;;;3.80;;
18100;SDS011;9177;49.156;8.142;2023-01-26T13:20:14;25.57;;;4.57;;
18100;SDS011;9177;49.156;8.142;2023-01-26T13:22:47;14.67;;;3.40;;
18100;SDS011;9177;49.156;8.142;2023-01-26T13:25:16;16.70;;;3.80;;
18100;SDS011;9177;49.156;8.142;2023-01-26T13:27:46;17.73;;;3.67;;
18100;SDS011;9177;49.156;8.142;2023-01-26T13:33:20;15.53;;;3.43;;
18100;SDS011;9177;49.156;8.142;2023-01-26T13:35:49;14.87;;;3.40;;
18100;SDS011;9177;49.156;8.142;2023-01-26T13:38:22;15.10;;;3.47;;
18100;SDS011;9177;49.156;8.142;2023-01-26T13:40:55;10.43;;;3.00;;
18100;SDS011;9177;49.156;8.142;2023-01-26T13:43:27;13.60;;;3.50;;
18100;SDS011;9177;49.156;8.142;2023-01-26T13:46:02;12.93;;;3.40;;
18100;SDS011;9177;49.156;8.142;2023-01-26T13:48:39;16.47;;;3.33;;
18100;SDS011;9177;49.156;8.142;2023-01-26T13:51:11;10.87;;;2.80;;
18100;SDS011;9177;49.156;8.142;2023-01-26T13:53:42;15.03;;;3.57;;
18100;SDS011;9177;49.156;8.142;2023-01-26T13:56:20;13.23;;;3.33;;
18100;SDS011;9177;49.156;8.142;2023-01-26T13:58:51;13.90;;;3.60;;
18100;SDS011;9177;49.156;8.142;2023-01-26T14:01:18;11.30;;;3.80;;
18100;SDS011;9177;49.156;8.142;2023-01-26T14:03:46;12.33;;;3.33;;
18100;SDS011;9177;49.156;8.142;2023-01-26T14:06:13;19.53;;;3.67;;
18100;SDS011;9177;49.156;8.142;2023-01-26T14:08:44;17.73;;;3.27;;
18100;SDS011;9177;49.156;8.142;2023-01-26T14:11:20;8.90;;;2.63;;
18100;SDS011;9177;49.156;8.142;2023-01-26T14:13:50;8.40;;;2.90;;
18100;SDS011;9177;49.156;8.142;2023-01-26T14:16:21;16.60;;;4.33;;
18100;SDS011;9177;49.156;8.142;2023-01-26T14:18:50;10.63;;;2.87;;
18100;SDS011;9177;49.156;8.142;2023-01-26T14:21:19;12.97;;;2.80;;
18100;SDS011;9177;49.156;8.142;2023-01-26T14:23:52;12.30;;;3.37;;
18100;SDS011;9177;49.156;8.142;2023-01-26T14:26:22;8.60;;;3.27;;
18100;SDS011;9177;49.156;8.142;2023-01-26T14:28:56;8.87;;;2.93;;
18100;SDS011;9177;49.156;8.142;2023-01-26T14:31:24;12.67;;;3.40;;
18100;SDS011;9177;49.156;8.142;2023-01-26T14:33:53;11.33;;;3.10;;
18100;SDS011;9177;49.156;8.142;2023-01-26T14:36:23;14.13;;;3.53;;
18100;SDS011;9177;49.156;8.142;2023-01-26T14:38:52;13.17;;;4.37;;
18100;SDS011;9177;49.156;8.142;2023-01-26T14:41:20;11.70;;;3.63;;
18100;SDS011;9177;49.156;8.142;2023-01-26T14:43:50;13.03;;;3.40;;
18100;SDS011;9177;49.156;8.142;2023-01-26T14:46:20;11.70;;;3.53;;
18100;SDS011;9177;49.156;8.142;2023-01-26T14:48:51;12.00;;;3.93;;
18100;SDS011;9177;49.156;8.142;2023-01-26T14:51:26;10.27;;;3.93;;
18100;SDS011;9177;49.156;8.142;2023-01-26T14:53:54;10.60;;;3.87;;
18100;SDS011;9177;49.156;8.142;2023-01-26T14:56:24;16.03;;;4.00;;
18100;SDS011;9177;49.156;8.142;2023-01-26T14:58:58;16.40;;;3.83;;
18100;SDS011;9177;49.156;8.142;2023-01-26T15:01:27;17.43;;;3.40;;
18100;SDS011;9177;49.156;8.142;2023-01-26T15:03:56;11.83;;;4.47;;
18100;SDS011;9177;49.156;8.142;2023-01-26T15:06:26;29.27;;;6.23;;
18100;SDS011;9177;49.156;8.142;2023-01-26T15:08:56;30.50;;;8.37;;
18100;SDS011;9177;49.156;8.142;2023-01-26T15:11:26;35.27;;;8.93;;
18100;SDS011;9177;49.156;8.142;2023-01-26T15:14:35;19.33;;;8.53;;
18100;SDS011;9177;49.156;8.142;2023-01-26T15:17:04;22.83;;;8.63;;
18100;SDS011;9177;49.156;8.142;2023-01-26T15:19:32;21.00;;;7.47;;
18100;SDS011;9177;49.156;8.142;2023-01-26T15:22:13;18.03;;;6.93;;
18100;SDS011;9177;49.156;8.142;2023-01-26T15:24:46;17.87;;;6.27;;
18100;SDS011;9177;49.156;8.142;2023-01-26T15:27:28;14.60;;;6.13;;
18100;SDS011;9177;49.156;8.142;2023-01-26T15:29:56;43.60;;;8.97;;
18100;SDS011;9177;49.156;8.142;2023-01-26T15:32:29;76.80;;;11.63;;